Time;durP1;ratioP1;P1;durP2;ratioP2;P2;SDS_P1;SDS_P2;PMS_P1;PMS_P2;Temp;Humidity;BMP_temperature;BMP_pressure;BME280_temperature;BME280_humidity;BME280_pressure;Samples;Min_cycle;Max_cycle;Signal;HPM_P1;HPM_P2
2023/07/28 00:02:16;;;;;;;;;;;;;;;;;;7367195;19;1819;-64
2023/07/28 00:04:44;;;;;;;;;;;;;;;;;;7368220;19;1708;-64
2023/07/28 00:07:12;;;;;;;;;;;;;;;;;;7366533;19;1942;-64
2023/07/28 00:09:41;;;;;;;;;;;;;;;;;;7365906;19;1694;-64
2023/07/28 00:12:09;;;;;;;;;;;;;;;;;;7366540;19;1859;-63
2023/07/28 00:14:37;;;;;;;;;;;;;;;;;;7367319;19;1767;-64
2023/07/28 00:17:05;;;;;;;;;;;;;;;;;;7365584;19;1771;-63
2023/07/28 00:19:33;;;;;;;;;;;;;;;;;;7364516;19;1643;-64
2023/07/28 00:22:01;;;;;;;;;;;;;;;;;;7365525;19;2090;-64
2023/07/28 00:24:29;;;;;;;;;;;;;;;;;;7368999;19;1421;-64
2023/07/28 00:26:58;;;;;;;;;;;;;;;;;;7366255;19;1914;-63
2023/07/28 00:29:26;;;;;;;;;;;;;;;;;;7363689;19;1697;-63
2023/07/28 00:31:54;;;;;;;;;;;;;;;;;;7366368;19;1725;-64
2023/07/28 00:34:22;;;;;;;;;;;;;;;;;;7365675;19;1990;-65
2023/07/28 00:36:50;;;;;;;;;;;;;;;;;;7371931;19;2001;-64
2023/07/28 00:39:18;;;;;;;;;;;;;;;;;;7369013;19;1840;-64
2023/07/28 00:41:46;;;;;;;;;;;;;;;;;;7374192;19;1683;-64
2023/07/28 00:44:16;;;;;;;;;;;;;;;;;;7371802;19;1640;-63
2023/07/28 00:46:44;;;;;;;;;;;;;;;;;;7370504;19;1709;-64
2023/07/28 00:49:12;;;;;;;;;;;;;;;;;;7370122;19;1897;-64
2023/07/28 00:51:41;;;;;;;;;;;;;;;;;;7372951;19;1795;-64
2023/07/28 00:54:09;;;;;;;;;;;;;;;;;;7372045;19;1845;-64
2023/07/28 00:56:37;;;;;;;;;;;;;;;;;;7368609;19;1860;-64
2023/07/28 00:59:05;;;;;;;;;;;;;;;;;;7370844;19;2236;-64
2023/07/28 01:01:33;;;;;;;;;;;;;;;;;;7373478;19;1684;-65
2023/07/28 01:04:01;;;;;;;;;;;;;;;;;;7369762;19;1809;-64
2023/07/28 01:06:30;;;;;;;;;;;;;;;;;;7370885;19;1896;-64
2023/07/28 01:08:58;;;;;;;;;;;;;;;;;;7369926;19;1975;-64
2023/07/28 01:11:26;;;;;;;;;;;;;;;;;;7372294;19;1639;-64
2023/07/28 01:13:54;;;;;;;;;;;;;;;;;;7368425;19;1842;-64
2023/07/28 01:16:22;;;;;;;;;;;;;;;;;;7368309;19;811;-65
2023/07/28 01:18:51;;;;;;;;;;;;;;;;;;7367530;19;1329;-64
2023/07/28 01:21:19;;;;;;;;;;;;;;;;;;7372637;19;821;-62
2023/07/28 01:23:47;;;;;;;;;;;;;;;;;;7370036;19;818;-64
2023/07/28 01:26:15;;;;;;;;;;;;;;;;;;7371217;19;1477;-63
2023/07/28 01:28:43;;;;;;;;;;;;;;;;;;7367153;19;1321;-64
2023/07/28 01:31:12;;;;;;;;;;;;;;;;;;7369435;19;777;-64
2023/07/28 01:33:40;;;;;;;;;;;;;;;;;;7366630;19;1833;-64
2023/07/28 01:36:08;;;;;;;;;;;;;;;;;;7370849;19;1752;-64
2023/07/28 01:38:36;;;;;;;;;;;;;;;;;;7368184;19;1800;-64
2023/07/28 01:41:04;;;;;;;;;;;;;;;;;;7370034;19;1714;-63
2023/07/28 01:43:32;;;;;;;;;;;;;;;;;;7371182;19;1909;-64
2023/07/28 01:46:00;;;;;;;;;;;;;;;;;;7371389;19;1816;-65
2023/07/28 01:48:29;;;;;;;;;;;;;;;;;;7368363;19;1719;-64
2023/07/28 01:50:57;;;;;;;;;;;;;;;;;;7369314;19;2049;-65
2023/07/28 01:53:25;;;;;;;;;;;;;;;;;;7369884;19;1849;-65
2023/07/28 01:55:53;;;;;;;;;;;;;;;;;;7367805;19;2051;-65
2023/07/28 01:58:21;;;;;;;;;;;;;;;;;;7367186;19;1702;-65
2023/07/28 02:00:49;;;;;;;;;;;;;;;;;;7369798;19;1809;-66
2023/07/28 02:03:18;;;;;;;;;;;;;;;;;;7369797;19;1612;-66
2023/07/28 02:05:46;;;;;;;;;;;;;;;;;;7370944;19;1716;-66
2023/07/28 02:08:14;;;;;;;;;;;;;;;;;;7367409;19;1608;-65
2023/07/28 02:10:43;;;;;;;;;;;;;;;;;;7368434;19;2041;-66
2023/07/28 02:13:11;;;;;;;;;;;;;;;;;;7368412;19;2166;-66
2023/07/28 02:15:39;;;;;;;;;;;;;;;;;;7371131;19;1359;-66
2023/07/28 02:18:07;;;;;;;;;;;;;;;;;;7368854;19;1669;-65
2023/07/28 02:20:36;;;;;;;;;;;;;;;;;;7370625;19;1749;-66
2023/07/28 02:23:04;;;;;;;;;;;;;;;;;;7369121;19;1796;-66
2023/07/28 02:25:32;;;;;;;;;;;;;;;;;;7370389;19;1955;-66
2023/07/28 02:28:00;;;;;;;;;;;;;;;;;;7367209;19;1559;-65
2023/07/28 02:30:28;;;;;;;;;;;;;;;;;;7370543;19;1807;-66
2023/07/28 02:32:57;;;;;;;;;;;;;;;;;;7370356;19;1858;-66
2023/07/28 02:35:25;;;;;;;;;;;;;;;;;;7370734;19;1857;-66
2023/07/28 02:37:53;;;;;;;;;;;;;;;;;;7368691;19;2074;-66
2023/07/28 02:40:21;;;;;;;;;;;;;;;;;;7367479;19;1999;-65
2023/07/28 02:42:50;;;;;;;;;;;;;;;;;;7371527;19;2045;-66
2023/07/28 02:45:18;;;;;;;;;;;;;;;;;;7370076;19;1765;-66
2023/07/28 02:47:46;;;;;;;;;;;;;;;;;;7370065;19;1633;-66
2023/07/28 02:50:14;;;;;;;;;;;;;;;;;;7366953;19;1822;-66
2023/07/28 02:52:43;;;;;;;;;;;;;;;;;;7366263;19;1940;-66
2023/07/28 02:55:11;;;;;;;;;;;;;;;;;;7365246;19;1853;-66
2023/07/28 02:57:39;;;;;;;;;;;;;;;;;;7367013;19;1779;-66
2023/07/28 03:00:10;;;;;;;;;;;;;;;;;;7368686;19;1723;-66
2023/07/28 03:02:38;;;;;;;;;;;;;;;;;;7368728;19;1759;-66
2023/07/28 03:05:06;;;;;;;;;;;;;;;;;;7365295;19;2090;-66
2023/07/28 03:07:34;;;;;;;;;;;;;;;;;;7369189;19;1681;-66
2023/07/28 03:10:06;;;;;;;;;;;;;;;;;;7366614;19;1762;-66
2023/07/28 03:12:37;;;;;;;;;;;;;;;;;;7370076;19;1718;-66
2023/07/28 03:15:05;;;;;;;;;;;;;;;;;;7364412;19;1868;-66
2023/07/28 03:17:33;;;;;;;;;;;;;;;;;;7365220;19;1345;-67
2023/07/28 03:20:01;;;;;;;;;;;;;;;;;;7367601;19;899;-65
2023/07/28 03:22:30;;;;;;;;;;;;;;;;;;7365581;19;793;-64
2023/07/28 03:24:58;;;;;;;;;;;;;;;;;;7364987;19;852;-66
2023/07/28 03:27:27;;;;;;;;;;;;;;;;;;7367794;19;1582;-66
2023/07/28 03:29:55;;;;;;;;;;;;;;;;;;7361396;19;729;-66
2023/07/28 03:32:24;;;;;;;;;;;;;;;;;;7365465;19;814;-66
2023/07/28 03:34:53;;;;;;;;;;;;;;;;;;7362609;19;2002;-64
2023/07/28 03:37:22;;;;;;;;;;;;;;;;;;7366381;19;1732;-66
2023/07/28 03:39:50;;;;;;;;;;;;;;;;;;7364663;19;2121;-66
2023/07/28 03:42:19;;;;;;;;;;;;;;;;;;7367482;19;1729;-66
2023/07/28 03:44:47;;;;;;;;;;;;;;;;;;7367249;19;1881;-66
2023/07/28 03:47:15;;;;;;;;;;;;;;;;;;7366087;19;1721;-64
2023/07/28 03:49:43;;;;;;;;;;;;;;;;;;7363917;19;1833;-64
2023/07/28 03:52:11;;;;;;;;;;;;;;;;;;7365864;19;1849;-65
2023/07/28 03:54:39;;;;;;;;;;;;;;;;;;7365895;19;2103;-65
2023/07/28 03:57:08;;;;;;;;;;;;;;;;;;7367468;19;1937;-65
2023/07/28 03:59:36;;;;;;;;;;;;;;;;;;7363174;19;1826;-65
2023/07/28 04:02:04;;;;;;;;;;;;;;;;;;7367173;19;1647;-65
2023/07/28 04:04:32;;;;;;;;;;;;;;;;;;7364548;19;1936;-65
2023/07/28 04:07:00;;;;;;;;;;;;;;;;;;7366722;19;1709;-65
2023/07/28 04:09:28;;;;;;;;;;;;;;;;;;7369716;19;1772;-64
2023/07/28 04:11:56;;;;;;;;;;;;;;;;;;7374043;19;1829;-64
2023/07/28 04:14:25;;;;;;;;;;;;;;;;;;7374198;19;1845;-64
2023/07/28 04:16:53;;;;;;;;;;;;;;;;;;7371426;19;2073;-65
2023/07/28 04:19:21;;;;;;;;;;;;;;;;;;7371029;19;1950;-65
2023/07/28 04:21:49;;;;;;;;;;;;;;;;;;7373277;19;1724;-65
2023/07/28 04:24:17;;;;;;;;;;;;;;;;;;7370954;19;1777;-66
2023/07/28 04:26:49;;;;;;;;;;;;;;;;;;7369917;19;1949;-65
2023/07/28 04:29:17;;;;;;;;;;;;;;;;;;7368475;19;1776;-66
2023/07/28 04:31:45;;;;;;;;;;;;;;;;;;7373094;19;1901;-65
2023/07/28 04:34:16;;;;;;;;;;;;;;;;;;7371374;19;1876;-65
2023/07/28 04:37:03;;;;;;;;;;;;;;;;;;7373718;19;1529;-65
2023/07/28 04:39:42;;;;;;;;;;;;;;;;;;7368737;19;2009;-65
2023/07/28 04:42:12;;;;;;;;;;;;;;;;;;7371627;19;1693;-66
2023/07/28 04:44:44;;;;;;;;;;;;;;;;;;7373520;19;1863;-66
2023/07/28 04:47:12;;;;;;;;;;;;;;;;;;7373721;19;1810;-65
2023/07/28 04:49:40;;;;;;;;;;;;;;;;;;7369566;19;1644;-65
2023/07/28 04:52:28;;;;;;;;;;;;;;;;;;7374005;19;1890;-65
2023/07/28 04:55:20;;;;;;;;;;;;;;;;;;7367489;19;1873;-65
2023/07/28 04:57:48;;;;;;;;;;;;;;;;;;7371370;19;1662;-65
2023/07/28 05:00:16;;;;;;;;;;;;;;;;;;7369917;19;1625;-65
2023/07/28 05:02:44;;;;;;;;;;;;;;;;;;7371168;19;1683;-66
2023/07/28 05:05:12;;;;;;;;;;;;;;;;;;7371076;19;1754;-66
2023/07/28 05:07:41;;;;;;;;;;;;;;;;;;7370855;19;2027;-66
2023/07/28 05:10:09;;;;;;;;;;;;;;;;;;7371393;19;1869;-66
2023/07/28 05:12:37;;;;;;;;;;;;;;;;;;7368148;19;846;-67
2023/07/28 05:15:05;;;;;;;;;;;;;;;;;;7369755;19;1844;-65
2023/07/28 05:17:33;;;;;;;;;;;;;;;;;;7368413;19;1348;-66
2023/07/28 05:20:18;;;;;;;;;;;;;;;;;;7365115;19;896;-65
2023/07/28 05:22:54;;;;;;;;;;;;;;;;;;7368382;19;1057;-65
2023/07/28 05:25:24;;;;;;;;;;;;;;;;;;7367536;19;751;-65
2023/07/28 05:27:53;;;;;;;;;;;;;;;;;;7371153;19;1634;-64
2023/07/28 05:30:21;;;;;;;;;;;;;;;;;;7366903;19;827;-65
2023/07/28 05:32:49;;;;;;;;;;;;;;;;;;7367514;19;823;-65
2023/07/28 05:35:37;;;;;;;;;;;;;;;;;;7368362;19;1863;-65
2023/07/28 05:38:06;;;;;;;;;;;;;;;;;;7368708;19;1377;-66
2023/07/28 05:40:34;;;;;;;;;;;;;;;;;;7372716;19;2089;-65
2023/07/28 05:43:02;;;;;;;;;;;;;;;;;;7372798;19;1660;-65
2023/07/28 05:45:31;;;;;;;;;;;;;;;;;;7370567;19;2116;-63
2023/07/28 05:47:59;;;;;;;;;;;;;;;;;;7370639;19;1598;-66
2023/07/28 05:50:27;;;;;;;;;;;;;;;;;;7370292;19;1765;-65
2023/07/28 05:52:55;;;;;;;;;;;;;;;;;;7371027;19;1465;-65
2023/07/28 05:55:23;;;;;;;;;;;;;;;;;;7368147;19;1964;-65
2023/07/28 05:57:51;;;;;;;;;;;;;;;;;;7371260;19;1571;-65
2023/07/28 06:00:20;;;;;;;;;;;;;;;;;;7366844;19;1878;-66
2023/07/28 06:02:49;;;;;;;;;;;;;;;;;;7371095;19;1609;-65
2023/07/28 06:05:34;;;;;;;;;;;;;;;;;;7370372;19;1752;-65
2023/07/28 06:08:02;;;;;;;;;;;;;;;;;;7367100;19;1888;-66
2023/07/28 06:10:30;;;;;;;;;;;;;;;;;;7371756;19;1631;-66
2023/07/28 06:12:59;;;;;;;;;;;;;;;;;;7369372;19;1849;-66
2023/07/28 06:15:28;;;;;;;;;;;;;;;;;;7366368;19;1925;-65
2023/07/28 06:17:57;;;;;;;;;;;;;;;;;;7371610;19;1580;-64
2023/07/28 06:20:25;;;;;;;;;;;;;;;;;;7368660;19;1814;-66
2023/07/28 06:22:53;;;;;;;;;;;;;;;;;;7371425;19;1532;-65
2023/07/28 06:25:21;;;;;;;;;;;;;;;;;;7370124;19;1651;-64
2023/07/28 06:27:49;;;;;;;;;;;;;;;;;;7368015;19;1855;-65
2023/07/28 06:30:17;;;;;;;;;;;;;;;;;;7368743;19;1715;-67
2023/07/28 06:32:46;;;;;;;;;;;;;;;;;;7364760;19;1863;-65
2023/07/28 06:35:14;;;;;;;;;;;;;;;;;;7367549;19;2047;-65
2023/07/28 06:37:42;;;;;;;;;;;;;;;;;;7370098;19;1700;-67
2023/07/28 06:40:10;;;;;;;;;;;;;;;;;;7367210;19;2014;-67
2023/07/28 06:42:38;;;;;;;;;;;;;;;;;;7368809;19;1810;-66
2023/07/28 06:45:06;;;;;;;;;;;;;;;;;;7368575;19;1878;-66
2023/07/28 06:47:35;;;;;;;;;;;;;;;;;;7371084;19;1592;-66
2023/07/28 06:50:03;;;;;;;;;;;;;;;;;;7369205;19;1986;-67
2023/07/28 06:52:31;;;;;;;;;;;;;;;;;;7367129;19;1811;-66
2023/07/28 06:54:59;;;;;;;;;;;;;;;;;;7367319;19;1882;-66
2023/07/28 06:57:27;;;;;;;;;;;;;;;;;;7368562;19;1807;-66
2023/07/28 06:59:55;;;;;;;;;;;;;;;;;;7364521;19;2023;-66
2023/07/28 07:02:23;;;;;;;;;;;;;;;;;;7367999;19;1756;-66
2023/07/28 07:04:52;;;;;;;;;;;;;;;;;;7371506;19;1740;-66
2023/07/28 07:07:20;;;;;;;;;;;;;;;;;;7368386;19;2088;-67
2023/07/28 07:09:48;;;;;;;;;;;;;;;;;;7364765;19;1634;-66
2023/07/28 07:12:17;;;;;;;;;;;;;;;;;;7369732;19;1689;-66
2023/07/28 07:14:45;;;;;;;;;;;;;;;;;;7369313;19;1850;-65
2023/07/28 07:17:13;;;;;;;;;;;;;;;;;;7369192;19;941;-67
2023/07/28 07:19:41;;;;;;;;;;;;;;;;;;7363806;19;1301;-66
2023/07/28 07:22:09;;;;;;;;;;;;;;;;;;7368124;19;866;-66
2023/07/28 07:24:38;;;;;;;;;;;;;;;;;;7366946;19;735;-66
2023/07/28 07:27:09;;;;;;;;;;;;;;;;;;7369755;19;1623;-66
2023/07/28 07:29:37;;;;;;;;;;;;;;;;;;7365283;19;1294;-66
2023/07/28 07:32:05;;;;;;;;;;;;;;;;;;7368191;19;860;-66
2023/07/28 07:34:33;;;;;;;;;;;;;;;;;;7369571;19;1834;-65
2023/07/28 07:37:01;;;;;;;;;;;;;;;;;;7370873;19;1762;-66
2023/07/28 07:39:29;;;;;;;;;;;;;;;;;;7365470;19;2066;-66
2023/07/28 07:41:58;;;;;;;;;;;;;;;;;;7367943;19;2072;-66
2023/07/28 07:44:26;;;;;;;;;;;;;;;;;;7368690;19;1909;-66
2023/07/28 07:46:54;;;;;;;;;;;;;;;;;;7363948;19;1670;-67
2023/07/28 07:49:22;;;;;;;;;;;;;;;;;;7360339;19;1291;-66
2023/07/28 07:51:50;;;;;;;;;;;;;;;;;;7368051;19;993;-66
2023/07/28 07:54:18;;;;;;;;;;;;;;;;;;7367314;19;980;-66
2023/07/28 07:56:46;;;;;;;;;;;;;;;;;;7367536;19;816;-67
2023/07/28 07:59:15;;;;;;;;;;;;;;;;;;7363194;19;1271;-66
2023/07/28 08:01:43;;;;;;;;;;;;;;;;;;7366863;19;826;-66
2023/07/28 08:04:11;;;;;;;;;;;;;;;;;;7366762;19;892;-67
2023/07/28 08:06:40;;;;;;;;;;;;;;;;;;7366715;19;2107;-66
2023/07/28 08:09:08;;;;;;;;;;;;;;;;;;7366665;19;1885;-66
2023/07/28 08:11:36;;;;;;;;;;;;;;;;;;7369255;19;1742;-65
2023/07/28 08:14:04;;;;;;;;;;;;;;;;;;7369942;19;1557;-66
2023/07/28 08:16:32;;;;;;;;;;;;;;;;;;7363663;19;1843;-66
2023/07/28 08:19:00;;;;;;;;;;;;;;;;;;7363841;19;1318;-66
2023/07/28 08:21:31;;;;;;;;;;;;;;;;;;7367628;19;1648;-66
2023/07/28 08:23:59;;;;;;;;;;;;;;;;;;7369514;19;1212;-66
2023/07/28 08:26:27;;;;;;;;;;;;;;;;;;7366808;19;797;-66
2023/07/28 08:28:55;;;;;;;;;;;;;;;;;;7365407;19;1690;-66
2023/07/28 08:31:23;;;;;;;;;;;;;;;;;;7368185;19;1706;-66
2023/07/28 08:33:51;;;;;;;;;;;;;;;;;;7365343;19;795;-66
2023/07/28 08:36:20;;;;;;;;;;;;;;;;;;7365853;19;1837;-66
2023/07/28 08:38:48;;;;;;;;;;;;;;;;;;7367164;19;1670;-66
2023/07/28 08:41:16;;;;;;;;;;;;;;;;;;7367310;19;1895;-67
2023/07/28 08:43:45;;;;;;;;;;;;;;;;;;7370312;19;1736;-66
2023/07/28 08:46:13;;;;;;;;;;;;;;;;;;7365946;19;877;-66
2023/07/28 08:48:42;;;;;;;;;;;;;;;;;;7364235;19;1927;-67
2023/07/28 08:51:11;;;;;;;;;;;;;;;;;;7367458;19;1715;-65
2023/07/28 08:53:40;;;;;;;;;;;;;;;;;;7368434;19;1500;-65
2023/07/28 08:56:08;;;;;;;;;;;;;;;;;;7367714;19;1838;-65
2023/07/28 08:58:36;;;;;;;;;;;;;;;;;;7368563;19;1707;-65
2023/07/28 09:01:04;;;;;;;;;;;;;;;;;;7374472;19;1415;-66
2023/07/28 09:03:33;;;;;;;;;;;;;;;;;;7370605;19;1582;-66
2023/07/28 09:06:02;;;;;;;;;;;;;;;;;;7370495;19;818;-65
2023/07/28 09:08:30;;;;;;;;;;;;;;;;;;7368997;19;1911;-65
2023/07/28 09:10:58;;;;;;;;;;;;;;;;;;7374593;19;910;-65
2023/07/28 09:13:26;;;;;;;;;;;;;;;;;;7372497;19;1969;-65
2023/07/28 09:15:54;;;;;;;;;;;;;;;;;;7373267;19;1867;-64
2023/07/28 09:18:23;;;;;;;;;;;;;;;;;;7371629;19;1766;-65
2023/07/28 09:20:51;;;;;;;;;;;;;;;;;;7374206;19;1247;-65
2023/07/28 09:23:19;;;;;;;;;;;;;;;;;;7370436;19;794;-65
2023/07/28 09:25:47;;;;;;;;;;;;;;;;;;7370556;19;816;-65
2023/07/28 09:28:15;;;;;;;;;;;;;;;;;;7368366;19;1280;-65
2023/07/28 09:30:43;;;;;;;;;;;;;;;;;;7368074;19;815;-65
2023/07/28 09:33:12;;;;;;;;;;;;;;;;;;7370274;19;809;-67
2023/07/28 09:35:40;;;;;;;;;;;;;;;;;;7368554;19;1838;-65
2023/07/28 09:38:08;;;;;;;;;;;;;;;;;;7368978;19;1282;-65
2023/07/28 09:40:36;;;;;;;;;;;;;;;;;;7372361;19;2011;-64
2023/07/28 09:43:04;;;;;;;;;;;;;;;;;;7372616;19;1716;-64
2023/07/28 09:45:32;;;;;;;;;;;;;;;;;;7371604;19;781;-65
2023/07/28 09:48:02;;;;;;;;;;;;;;;;;;7370969;19;2405;-65
2023/07/28 09:50:30;;;;;;;;;;;;;;;;;;7373037;19;1770;-64
2023/07/28 09:52:58;;;;;;;;;;;;;;;;;;7375294;19;1058;-65
2023/07/28 09:55:26;;;;;;;;;;;;;;;;;;7369444;19;1837;-65
2023/07/28 09:57:54;;;;;;;;;;;;;;;;;;7368217;19;1368;-64
2023/07/28 10:00:22;;;;;;;;;;;;;;;;;;7371382;19;1975;-65
2023/07/28 10:02:50;;;;;;;;;;;;;;;;;;7371610;19;1837;-65
2023/07/28 10:05:19;;;;;;;;;;;;;;;;;;7371866;19;1578;-65
2023/07/28 10:07:47;;;;;;;;;;;;;;;;;;7367628;19;1725;-65
2023/07/28 10:10:16;;;;;;;;;;;;;;;;;;7372180;19;1784;-65
2023/07/28 10:12:44;;;;;;;;;;;;;;;;;;7373090;19;1654;-66
2023/07/28 10:15:13;;;;;;;;;;;;;;;;;;7368326;19;1841;-65
2023/07/28 10:17:41;;;;;;;;;;;;;;;;;;7368701;19;1967;-65
2023/07/28 10:20:09;;;;;;;;;;;;;;;;;;7369934;19;1769;-65
2023/07/28 10:22:37;;;;;;;;;;;;;;;;;;7372580;19;1481;-65
2023/07/28 10:25:08;;;;;;;;;;;;;;;;;;7368111;19;748;-66
2023/07/28 10:27:36;;;;;;;;;;;;;;;;;;7367833;19;1324;-65
2023/07/28 10:30:05;;;;;;;;;;;;;;;;;;7367625;19;741;-64
2023/07/28 10:32:33;;;;;;;;;;;;;;;;;;7367860;19;1922;-66
2023/07/28 10:35:02;;;;;;;;;;;;;;;;;;7370632;19;1471;-65
2023/07/28 10:37:30;;;;;;;;;;;;;;;;;;7366268;19;1837;-65
2023/07/28 10:39:58;;;;;;;;;;;;;;;;;;7367586;19;2043;-64
2023/07/28 10:42:27;;;;;;;;;;;;;;;;;;7372862;19;1465;-65
2023/07/28 10:44:55;;;;;;;;;;;;;;;;;;7369493;19;829;-65
2023/07/28 10:47:23;;;;;;;;;;;;;;;;;;7371277;19;2224;-65
2023/07/28 10:49:51;;;;;;;;;;;;;;;;;;7368399;19;1744;-65
2023/07/28 10:52:20;;;;;;;;;;;;;;;;;;7369738;19;1849;-66
2023/07/28 10:54:48;;;;;;;;;;;;;;;;;;7371251;19;1723;-65
2023/07/28 10:57:16;;;;;;;;;;;;;;;;;;7370487;19;1845;-64
2023/07/28 10:59:44;;;;;;;;;;;;;;;;;;7369162;19;1837;-65
2023/07/28 11:02:12;;;;;;;;;;;;;;;;;;7371475;19;1461;-65
2023/07/28 11:04:40;;;;;;;;;;;;;;;;;;7368430;19;856;-64
2023/07/28 11:07:09;;;;;;;;;;;;;;;;;;7367346;19;1698;-65
2023/07/28 11:09:37;;;;;;;;;;;;;;;;;;7369230;19;1599;-66
2023/07/28 11:12:05;;;;;;;;;;;;;;;;;;7367765;19;860;-65
2023/07/28 11:14:34;;;;;;;;;;;;;;;;;;7369857;19;1984;-65
2023/07/28 11:17:02;;;;;;;;;;;;;;;;;;7368565;19;1854;-65
2023/07/28 11:19:30;;;;;;;;;;;;;;;;;;7363035;19;1335;-67
2023/07/28 11:21:59;;;;;;;;;;;;;;;;;;7368236;19;1707;-65
2023/07/28 11:24:27;;;;;;;;;;;;;;;;;;7372000;19;1467;-64
2023/07/28 11:26:55;;;;;;;;;;;;;;;;;;7367110;19;2200;-65
2023/07/28 11:29:23;;;;;;;;;;;;;;;;;;7368115;19;1580;-65
2023/07/28 11:31:51;;;;;;;;;;;;;;;;;;7371806;19;1664;-64
2023/07/28 11:34:19;;;;;;;;;;;;;;;;;;7366606;19;2037;-65
2023/07/28 11:36:48;;;;;;;;;;;;;;;;;;7364189;19;1841;-67
2023/07/28 11:39:16;;;;;;;;;;;;;;;;;;7364139;19;1860;-64
2023/07/28 11:41:44;;;;;;;;;;;;;;;;;;7368750;19;1222;-65
2023/07/28 11:44:12;;;;;;;;;;;;;;;;;;7367524;19;838;-64
2023/07/28 11:46:41;;;;;;;;;;;;;;;;;;7369650;19;1967;-64
2023/07/28 11:49:09;;;;;;;;;;;;;;;;;;7367181;19;1402;-65
2023/07/28 11:51:37;;;;;;;;;;;;;;;;;;7367597;19;1836;-64
2023/07/28 11:54:05;;;;;;;;;;;;;;;;;;7371068;19;1432;-66
2023/07/28 11:56:33;;;;;;;;;;;;;;;;;;7365033;19;1864;-65
2023/07/28 11:59:02;;;;;;;;;;;;;;;;;;7364889;19;1999;-66
2023/07/28 12:01:31;;;;;;;;;;;;;;;;;;7368616;19;2084;-65
2023/07/28 12:04:00;;;;;;;;;;;;;;;;;;7365763;19;1763;-65
2023/07/28 12:06:28;;;;;;;;;;;;;;;;;;7368555;19;1612;-66
2023/07/28 12:08:56;;;;;;;;;;;;;;;;;;7367542;19;1483;-65
2023/07/28 12:11:24;;;;;;;;;;;;;;;;;;7366051;19;822;-65
2023/07/28 12:13:52;;;;;;;;;;;;;;;;;;7365194;19;828;-65
2023/07/28 12:16:21;;;;;;;;;;;;;;;;;;7364855;19;1845;-65
2023/07/28 12:18:49;;;;;;;;;;;;;;;;;;7362609;19;1285;-65
2023/07/28 12:21:17;;;;;;;;;;;;;;;;;;7365372;19;861;-65
2023/07/28 12:23:45;;;;;;;;;;;;;;;;;;7366007;19;1860;-66
2023/07/28 12:26:13;;;;;;;;;;;;;;;;;;7368650;19;1634;-65
2023/07/28 12:28:41;;;;;;;;;;;;;;;;;;7362439;19;1286;-66
2023/07/28 12:31:10;;;;;;;;;;;;;;;;;;7372946;19;1590;-65
2023/07/28 12:33:38;;;;;;;;;;;;;;;;;;7374189;19;1386;-65
2023/07/28 12:36:06;;;;;;;;;;;;;;;;;;7374162;19;1817;-66
2023/07/28 12:38:34;;;;;;;;;;;;;;;;;;7369662;19;1348;-66
2023/07/28 12:41:02;;;;;;;;;;;;;;;;;;7371396;19;2110;-65
2023/07/28 12:43:30;;;;;;;;;;;;;;;;;;7375496;19;1503;-65
2023/07/28 12:45:59;;;;;;;;;;;;;;;;;;7370669;19;799;-65
2023/07/28 12:48:27;;;;;;;;;;;;;;;;;;7369716;19;1251;-65
2023/07/28 12:50:55;;;;;;;;;;;;;;;;;;7372606;19;2093;-65
2023/07/28 12:53:23;;;;;;;;;;;;;;;;;;7373972;19;1417;-65
2023/07/28 12:55:51;;;;;;;;;;;;;;;;;;7368958;19;2051;-65
2023/07/28 12:58:20;;;;;;;;;;;;;;;;;;7371235;19;1684;-67
2023/07/28 13:00:48;;;;;;;;;;;;;;;;;;7375259;19;1661;-65
2023/07/28 13:03:16;;;;;;;;;;;;;;;;;;7370473;19;1957;-65
2023/07/28 13:05:46;;;;;;;;;;;;;;;;;;7374797;19;1632;-65
2023/07/28 13:08:14;;;;;;;;;;;;;;;;;;7369490;19;1291;-65
2023/07/28 13:10:43;;;;;;;;;;;;;;;;;;7371683;19;1671;-65
2023/07/28 13:13:11;;;;;;;;;;;;;;;;;;7373547;19;1682;-65
2023/07/28 13:15:39;;;;;;;;;;;;;;;;;;7372219;19;1882;-65
2023/07/28 13:18:07;;;;;;;;;;;;;;;;;;7370345;19;1837;-65
2023/07/28 13:20:36;;;;;;;;;;;;;;;;;;7370412;19;780;-65
2023/07/28 13:23:04;;;;;;;;;;;;;;;;;;7371906;19;1909;-65
2023/07/28 13:25:32;;;;;;;;;;;;;;;;;;7373912;19;1343;-63
2023/07/28 13:28:00;;;;;;;;;;;;;;;;;;7369730;19;1299;-62
2023/07/28 13:30:28;;;;;;;;;;;;;;;;;;7374382;19;1702;-65
2023/07/28 13:32:57;;;;;;;;;;;;;;;;;;7374404;19;1666;-65
2023/07/28 13:35:25;;;;;;;;;;;;;;;;;;7373885;19;1699;-64
2023/07/28 13:37:53;;;;;;;;;;;;;;;;;;7371854;19;1846;-65
2023/07/28 13:40:21;;;;;;;;;;;;;;;;;;7372026;19;1919;-65
2023/07/28 13:42:49;;;;;;;;;;;;;;;;;;7372662;19;1615;-64
2023/07/28 13:45:17;;;;;;;;;;;;;;;;;;7373410;19;1662;-65
2023/07/28 13:47:45;;;;;;;;;;;;;;;;;;7369222;19;1839;-64
2023/07/28 13:50:14;;;;;;;;;;;;;;;;;;7370569;19;2078;-66
2023/07/28 13:52:42;;;;;;;;;;;;;;;;;;7371949;19;1802;-64
2023/07/28 13:55:10;;;;;;;;;;;;;;;;;;7373574;19;1795;-64
2023/07/28 13:57:38;;;;;;;;;;;;;;;;;;7371998;19;1854;-65
2023/07/28 14:00:08;;;;;;;;;;;;;;;;;;7371522;19;2083;-63
2023/07/28 14:02:36;;;;;;;;;;;;;;;;;;7373097;19;1462;-62
2023/07/28 14:05:05;;;;;;;;;;;;;;;;;;7368576;19;1981;-64
2023/07/28 14:07:33;;;;;;;;;;;;;;;;;;7372607;19;1685;-65
2023/07/28 14:10:01;;;;;;;;;;;;;;;;;;7372200;19;1797;-66
2023/07/28 14:12:29;;;;;;;;;;;;;;;;;;7373078;19;1917;-64
2023/07/28 14:14:58;;;;;;;;;;;;;;;;;;7371940;19;1779;-64
2023/07/28 14:17:26;;;;;;;;;;;;;;;;;;7370687;19;1858;-64
2023/07/28 14:19:54;;;;;;;;;;;;;;;;;;7368950;19;1771;-63
2023/07/28 14:22:22;;;;;;;;;;;;;;;;;;7370017;19;1904;-65
2023/07/28 14:24:51;;;;;;;;;;;;;;;;;;7372132;19;1830;-65
2023/07/28 14:27:19;;;;;;;;;;;;;;;;;;7372203;19;1393;-63
2023/07/28 14:29:47;;;;;;;;;;;;;;;;;;7368576;19;1814;-64
2023/07/28 14:32:15;;;;;;;;;;;;;;;;;;7369119;19;2017;-64
2023/07/28 14:34:43;;;;;;;;;;;;;;;;;;7372879;19;1656;-64
2023/07/28 14:37:11;;;;;;;;;;;;;;;;;;7365998;19;1838;-66
2023/07/28 14:39:39;;;;;;;;;;;;;;;;;;7367517;19;1748;-66
2023/07/28 14:42:08;;;;;;;;;;;;;;;;;;7372293;19;1475;-65
2023/07/28 14:44:36;;;;;;;;;;;;;;;;;;7368670;19;853;-65
2023/07/28 14:47:04;;;;;;;;;;;;;;;;;;7369474;19;1942;-64
2023/07/28 14:49:32;;;;;;;;;;;;;;;;;;7368792;19;1488;-63
2023/07/28 14:52:00;;;;;;;;;;;;;;;;;;7367244;19;809;-64
2023/07/28 14:54:29;;;;;;;;;;;;;;;;;;7366904;19;870;-66
2023/07/28 14:56:57;;;;;;;;;;;;;;;;;;7364980;19;1830;-64
2023/07/28 14:59:26;;;;;;;;;;;;;;;;;;7365038;19;1853;-63
2023/07/28 15:01:54;;;;;;;;;;;;;;;;;;7371705;19;1657;-62
2023/07/28 15:04:22;;;;;;;;;;;;;;;;;;7366591;19;859;-64
2023/07/28 15:06:50;;;;;;;;;;;;;;;;;;7368388;19;1821;-61
2023/07/28 15:09:22;;;;;;;;;;;;;;;;;;7367506;19;1473;-63
2023/07/28 15:11:50;;;;;;;;;;;;;;;;;;7367585;19;750;-62
2023/07/28 15:14:19;;;;;;;;;;;;;;;;;;7367795;19;811;-64
2023/07/28 15:16:47;;;;;;;;;;;;;;;;;;7368413;19;1849;-62
2023/07/28 15:19:15;;;;;;;;;;;;;;;;;;7368028;19;1665;-59
2023/07/28 15:21:43;;;;;;;;;;;;;;;;;;7366557;19;877;-63
2023/07/28 15:24:11;;;;;;;;;;;;;;;;;;7365997;19;841;-63
2023/07/28 15:26:39;;;;;;;;;;;;;;;;;;7366635;19;1981;-63
2023/07/28 15:29:08;;;;;;;;;;;;;;;;;;7366892;19;1332;-64
2023/07/28 15:31:36;;;;;;;;;;;;;;;;;;7366484;19;1864;-64
2023/07/28 15:34:04;;;;;;;;;;;;;;;;;;7367901;19;1862;-63
2023/07/28 15:36:32;;;;;;;;;;;;;;;;;;7367646;19;1691;-64
2023/07/28 15:39:00;;;;;;;;;;;;;;;;;;7364906;19;1849;-62
2023/07/28 15:41:28;;;;;;;;;;;;;;;;;;7366494;19;814;-64
2023/07/28 15:43:57;;;;;;;;;;;;;;;;;;7364411;19;1988;-64
2023/07/28 15:46:25;;;;;;;;;;;;;;;;;;7369046;19;1497;-62
2023/07/28 15:48:53;;;;;;;;;;;;;;;;;;7362116;19;1715;-63
2023/07/28 15:51:21;;;;;;;;;;;;;;;;;;7366348;19;1585;-66
2023/07/28 15:53:49;;;;;;;;;;;;;;;;;;7369909;19;1638;-63
2023/07/28 15:56:17;;;;;;;;;;;;;;;;;;7367948;19;1599;-64
2023/07/28 15:58:45;;;;;;;;;;;;;;;;;;7363516;19;1960;-65
2023/07/28 16:01:14;;;;;;;;;;;;;;;;;;7362020;19;833;-61
2023/07/28 16:03:42;;;;;;;;;;;;;;;;;;7366987;19;841;-63
2023/07/28 16:06:10;;;;;;;;;;;;;;;;;;7380141;19;842;-64
2023/07/28 16:08:38;;;;;;;;;;;;;;;;;;7377384;19;1265;-64
2023/07/28 16:11:06;;;;;;;;;;;;;;;;;;7380756;19;829;-63
2023/07/28 16:13:34;;;;;;;;;;;;;;;;;;7380156;19;778;-64
2023/07/28 16:16:03;;;;;;;;;;;;;;;;;;7377659;19;851;-66
2023/07/28 16:18:31;;;;;;;;;;;;;;;;;;7376947;19;1897;-64
2023/07/28 16:20:59;;;;;;;;;;;;;;;;;;7381004;19;1944;-63
2023/07/28 16:23:27;;;;;;;;;;;;;;;;;;7382695;19;1675;-66
2023/07/28 16:25:55;;;;;;;;;;;;;;;;;;7383436;19;1480;-65
2023/07/28 16:28:24;;;;;;;;;;;;;;;;;;7377012;19;1723;-63
2023/07/28 16:30:52;;;;;;;;;;;;;;;;;;7383049;19;1460;-64
2023/07/28 16:33:20;;;;;;;;;;;;;;;;;;7377806;19;833;-65
2023/07/28 16:35:48;;;;;;;;;;;;;;;;;;7379325;19;1926;-66
2023/07/28 16:38:16;;;;;;;;;;;;;;;;;;7379368;19;1983;-64
2023/07/28 16:40:44;;;;;;;;;;;;;;;;;;7382680;19;1725;-65
2023/07/28 16:43:12;;;;;;;;;;;;;;;;;;7377937;19;2028;-65
2023/07/28 16:45:40;;;;;;;;;;;;;;;;;;7381982;19;1488;-65
2023/07/28 16:48:09;;;;;;;;;;;;;;;;;;7376574;19;1341;-66
2023/07/28 16:50:37;;;;;;;;;;;;;;;;;;7380151;19;1757;-64
2023/07/28 16:53:05;;;;;;;;;;;;;;;;;;7381160;19;1677;-64
2023/07/28 16:55:33;;;;;;;;;;;;;;;;;;7381061;19;1465;-66
2023/07/28 16:58:01;;;;;;;;;;;;;;;;;;7376220;19;1846;-67
2023/07/28 17:00:30;;;;;;;;;;;;;;;;;;7378458;19;783;-65
2023/07/28 17:02:58;;;;;;;;;;;;;;;;;;7377635;19;1864;-64
2023/07/28 17:05:26;;;;;;;;;;;;;;;;;;7382158;19;1491;-65
2023/07/28 17:07:55;;;;;;;;;;;;;;;;;;7376055;19;1346;-65
2023/07/28 17:10:23;;;;;;;;;;;;;;;;;;7379242;19;1914;-65
2023/07/28 17:12:51;;;;;;;;;;;;;;;;;;7381909;19;1625;-64
2023/07/28 17:15:19;;;;;;;;;;;;;;;;;;7375488;19;1053;-64